Sandy Bay Yacht Club
Weather Center


Nearby METAR Reports

Nearby METAR Reports

 

KBVY - Beverly, Massachusetts, USA
Distance from station: WSW 16mi, 26km
Updated: Fri, 03-Jul-2020 5:53pm EDT
Mist, Overcast
Mist, Overcast
 Wind from NE
Wind: NE 9 mph , 15 km/h
Temperature: 63°F , 17°C
Dew Point: 61°F , 16°C
Humidity: 94%
Barometer: 29.90 inHg , 1012.5 hPa
Summary: Mist
Clouds: Overcast
Visibility: 5 miles , 8 km
Cloud details: Overcast 500 ft
2020/07/03 21:53 KBVY 032153Z 04008KT 5SM BR OVC005 17/16 A2990 RMK AO2 SLP120 T01720156 $
KLWM - Lawrence, Massachusetts, USA
Distance from station: W 27mi, 43km
Updated: Fri, 03-Jul-2020 5:54pm EDT
Overcast
Overcast
 Wind from NE
Wind: NE 14 mph , 22 km/h
Temperature: 64°F , 18°C
Dew Point: 61°F , 16°C
Humidity: 88%
Barometer: 29.94 inHg , 1013.9 hPa
Clouds: Overcast
Visibility: 9 miles , 14 km
Cloud details: Overcast 700 ft
2020/07/03 21:54 KLWM 032154Z 04012KT 9SM OVC007 18/16 A2994 RMK AO2 SLP137 T01780161
 
KBOS - Boston, Massachusetts, USA
Distance from station: SW 29mi, 46km
Updated: Fri, 03-Jul-2020 5:54pm EDT
Overcast
Overcast
 Wind from NNE
Wind: NNE 13 mph , 20 km/h
Temperature: 64°F , 18°C
Dew Point: 61°F , 16°C
Humidity: 88%
Barometer: 29.91 inHg , 1012.9 hPa
Clouds: Overcast
Visibility: 7 miles , 11 km
Cloud details: Overcast 900 ft
2020/07/03 21:54 KBOS 032154Z 03011KT 7SM OVC009 18/16 A2991 RMK AO2 SLP128 VIS E-SE 3 T01780156 $
KPSM - Portsmouth/Pease, New Hampshire, USA
Distance from station: NNW 30mi, 48km
Updated: Fri, 03-Jul-2020 5:56pm EDT
Overcast
Overcast
 Wind from NE
Wind: NE 7 mph , 11 km/h
Temperature: 64°F , 18°C
Dew Point: 59°F , 15°C
Humidity: 83%
Barometer: 29.91 inHg , 1012.9 hPa
Clouds: Overcast
Visibility: 10 miles , 16 km
Cloud details: Overcast 1000 ft
2020/07/03 21:56 KPSM 032156Z 05006KT 10SM OVC010 18/15 A2991 RMK AO2A SLP131 T01830152
 
KMHT - Manchester, New Hampshire, USA
Distance from station: WNW 46mi, 73km
Updated: Fri, 03-Jul-2020 5:53pm EDT
Overcast
Overcast
 Wind from E
Wind: E 10 mph , 17 km/h
Temperature: 70°F , 21°C
Dew Point: 61°F , 16°C
Humidity: 73%
Barometer: 29.91 inHg , 1012.9 hPa
Clouds: Overcast
Visibility: 10 miles , 16 km
Cloud details: Overcast 2500 ft
2020/07/03 21:53 KMHT 032153Z 08009KT 10SM OVC025 21/16 A2991 RMK AO2 SLP137 T02110161
KPVC - Provincetown, Massachusetts, USA
Distance from station: SSE 46mi, 73km
Updated: Fri, 03-Jul-2020 6:37pm EDT
Mist, Overcast
Mist, Overcast
 Wind from NNE
Wind: NNE 10 mph , 17 km/h
Temperature: 64°F , 18°C
Dew Point: 64°F , 18°C
Humidity: 100%
Barometer: 29.87 inHg , 1011.5 hPa
Summary: Mist
Clouds: Overcast
Visibility: 3 miles , 5 km
Cloud details: Overcast 400 ft
2020/07/03 22:37 KPVC 032237Z AUTO 02009KT 3SM BR OVC004 18/18 A2987 RMK AO2 PNO $
 
KDAW - Rochester, New Hampshire, USA
Distance from station: NNW 46mi, 74km
Updated: Fri, 03-Jul-2020 5:51pm EDT
Overcast
Overcast
 Wind from NE
Wind: NE 8 mph , 13 km/h
Temperature: 66°F , 19°C
Dew Point: 57°F , 14°C
Humidity: 73%
Barometer: 29.93 inHg , 1013.5 hPa
Clouds: Overcast
Visibility: 10 miles , 16 km
Cloud details: Overcast 1700 ft
2020/07/03 21:51 KDAW 032151Z AUTO 05007KT 10SM OVC017 19/14 A2993 RMK AO2 SLP131 T01890144
KASH - Nashua/Boire Fld, New Hampshire, USA
Distance from station: W 47mi, 75km
Updated: Fri, 03-Jul-2020 5:56pm EDT
Overcast
Overcast
 Wind from ESE
Wind: ESE 9 mph , 15 km/h
Temperature: 70°F , 21°C
Dew Point: 64°F , 18°C
Humidity: 83%
Barometer: 29.93 inHg , 1013.5 hPa
Clouds: Overcast
Visibility: 10 miles , 16 km
Cloud details: Overcast 2200 ft
2020/07/03 21:56 KASH 032156Z 11008KT 10SM OVC022 21/18 A2993 RMK AO2 SLP138 T02110178
 
KSFM - Sanford Muni, Maine, USA
Distance from station: N 50mi, 81km
Updated: Fri, 03-Jul-2020 5:56pm EDT
Overcast
Overcast
 Wind from ENE
Wind: ENE 13 mph , 20 km/h
Temperature: 64°F , 18°C
Dew Point: 61°F , 16°C
Humidity: 88%
Barometer: 29.94 inHg , 1013.9 hPa
Clouds: Overcast
Visibility: 10 miles , 16 km
Cloud details: Mostly Cloudy 1200 ft
Mostly Cloudy 2000 ft
Overcast 3200 ft
2020/07/03 21:56 KSFM 032156Z AUTO 07011KT 10SM BKN012 BKN020 OVC032 18/16 A2994 RMK AO2 SLP141 T01780156

Metar display script from Saratoga-Weather.org

 



home

Copyright © Sandy Bay Yacht Club. All rights reserved.